M I D A S
Marine Information and Data Acquisition System
Tripno 1766 of the Zeeleeuw from 2009-08-07 08:07:37 to 2009-08-07 14:16:39
Back to CruiseResearch ActivitiesStationsMapUnderway DataData graphs

EquipmentUnitsComment
TimeDGPSUTC
LatitudeDGPSDM.mWGS84
LongitudeDGPSDM.mWGS84
HeadingGyrodeg 
SOGDGPSknotsSpeed over ground
COGDGPSdegCourse over ground
DepthEcho soundermeters200 kHz
Missing or incorrect values are displayed as -999
Navigation data collected by the RV Zeeleeuw from 2009-08-07 08:09:01 to 2009-08-07 14:30:30
Time Latitude Longitude Heading SOG COG Depth
2009-08-07 08:11:10 51°13.69 2°55.85 114.9 2.29 293 -999
2009-08-07 08:13:10 51°13.718 2°55.745 104.9 1.69 289 -999
2009-08-07 08:15:10 51°13.717 2°55.739 37.5 0.1 170 -999
2009-08-07 08:17:10 51°13.806 2°55.66 325.6 4.09 326 -999
2009-08-07 08:19:10 51°13.973 2°55.527 336.8 6.09 335 -999
2009-08-07 08:21:10 51°14.16 2°55.381 335.3 6.59 334 -999
2009-08-07 08:23:10 51°14.362 2°55.045 309.6 10.4 309 -999
2009-08-07 08:25:10 51°14.616 2°54.629 333.8 11.09 324 -999
2009-08-07 08:27:10 51°14.921 2°54.302 333.8 11 328 -999
2009-08-07 08:29:10 51°15.227 2°53.988 333.8 11 327 -999
2009-08-07 08:31:10 51°15.53 2°53.665 335.3 11 327 -999
2009-08-07 08:33:10 51°15.849 2°53.387 342.8 10.9 333 -999
2009-08-07 08:35:10 51°16.171 2°53.126 345 10.9 333 -999
2009-08-07 08:37:10 51°16.499 2°52.891 343.8 10.9 336 -999
2009-08-07 08:39:10 51°16.827 2°52.663 343.6 10.59 337 -999
2009-08-07 08:41:10 51°17.157 2°52.49 349.6 10.4 343 -999
2009-08-07 08:43:10 51°17.491 2°52.333 352.6 10.3 347 -999
2009-08-07 08:45:10 51°17.825 2°52.337 10.8 10 5 -999
2009-08-07 08:47:10 51°18.132 2°52.503 31.3 9.8 27 -999
2009-08-07 08:49:10 51°18.422 2°52.743 31.1 9.69 25 -999
2009-08-07 08:51:10 51°18.716 2°52.965 29.5 9.8 24 -999
2009-08-07 08:53:10 51°19.01 2°53.181 29.5 9.69 23 -999
2009-08-07 08:55:10 51°19.306 2°53.394 29.8 9.8 26 -999
2009-08-07 08:57:10 51°19.604 2°53.615 29.6 9.9 24 -999
2009-08-07 08:59:10 51°19.905 2°53.836 29.1 10 26 -999
2009-08-07 09:01:10 51°20.205 2°54.056 29.8 9.8 24 -999
2009-08-07 09:03:10 51°20.503 2°54.268 28.3 9.69 23 -999
2009-08-07 09:05:10 51°20.801 2°54.478 29.5 9.69 25 -999
2009-08-07 09:07:10 51°21.098 2°54.679 28.5 9.69 23 -999
2009-08-07 09:09:10 51°21.395 2°54.879 30.3 9.69 24 -999
2009-08-07 09:11:10 51°21.69 2°55.077 29.5 9.69 23 -999
2009-08-07 09:13:10 51°21.988 2°55.279 29.1 9.8 20 -999
2009-08-07 09:15:10 51°22.27 2°55.525 34.7 9.69 29 -999
2009-08-07 09:17:10 51°22.553 2°55.775 35.6 9.69 28 -999
2009-08-07 09:19:10 51°22.834 2°56.031 33.5 9.9 30 -999
2009-08-07 09:21:10 51°23.139 2°56.239 26.8 10.09 21 -999
2009-08-07 09:23:10 51°23.445 2°56.451 26.8 10 25 -999
2009-08-07 09:25:10 51°23.75 2°56.672 28 9.9 24 -999
2009-08-07 09:27:10 51°24.048 2°56.887 27.1 9.69 24 -999
2009-08-07 09:29:10 51°24.344 2°57.098 27.5 9.69 25 -999
2009-08-07 09:31:10 51°24.638 2°57.301 27.6 9.69 25 -999
2009-08-07 09:33:10 51°24.933 2°57.499 26.6 9.5 23 -999
2009-08-07 09:35:10 51°25.229 2°57.702 27.3 9.69 24 -999
2009-08-07 09:37:10 51°25.526 2°57.903 27.3 9.69 25 -999
2009-08-07 09:39:10 51°25.824 2°58.112 27.6 9.69 24 -999
2009-08-07 09:41:10 51°26.121 2°58.323 27.1 9.8 25 -999
2009-08-07 09:43:10 51°26.417 2°58.54 27.3 9.8 27 -999
2009-08-07 09:45:10 51°26.699 2°58.798 38.1 9.9 40 -999
2009-08-07 09:47:10 51°26.939 2°59.118 40.7 9 39 -999
2009-08-07 09:49:10 51°27.093 2°59.433 53.7 4.9 59 -999
2009-08-07 09:51:10 51°27.118 2°59.528 44 0.9 62 -999
2009-08-07 09:53:10 51°27.136 2°59.611 55.3 2.2 80 -999
2009-08-07 09:55:10 51°27.156 2°59.704 47.2 0.9 80 -999
2009-08-07 09:57:10 51°27.129 2°59.706 41.6 1.19 197 -999
2009-08-07 09:59:10 51°27.081 2°59.676 39.2 1.69 200 -999
2009-08-07 10:01:10 51°27.031 2°59.644 34.2 0.69 198 -999
2009-08-07 10:03:10 51°27.068 2°59.67 29.6 2.1 24 -999
2009-08-07 10:05:10 51°27.098 2°59.691 26.1 0.29 18 -999
2009-08-07 10:07:10 51°27.078 2°59.677 29.6 1.19 205 -999
2009-08-07 10:09:10 51°27.038 2°59.651 31 1.3 205 -999
2009-08-07 10:11:10 51°27.024 2°59.643 27.6 0.1 260 -999
2009-08-07 10:13:10 51°27.056 2°59.668 29.8 1.89 28 -999
2009-08-07 10:15:10 51°27.123 2°59.706 22.3 2 22 -999
2009-08-07 10:17:10 51°27.152 2°59.706 20.3 0.5 224 -999
2009-08-07 10:19:10 51°27.114 2°59.681 26.8 1.6 198 -999
2009-08-07 10:21:10 51°27.072 2°59.669 37.1 0.4 135 -999
2009-08-07 10:23:10 51°27.108 2°59.697 30.6 1.6 29 -999
2009-08-07 10:25:10 51°27.161 2°59.725 23.6 1.89 14 -999
2009-08-07 10:27:10 51°27.149 2°59.711 15.5 0.8 213 -999
2009-08-07 10:29:10 51°27.139 2°59.726 45 0.5 95 -999
2009-08-07 10:31:10 51°27.154 2°59.712 15 0.59 359 -999
2009-08-07 10:33:10 51°27.13 2°59.753 70.2 1.19 165 -999
2009-08-07 10:35:10 51°27.086 2°59.746 50.1 1.5 195 -999
2009-08-07 10:37:10 51°27.032 2°59.719 46.1 1.8 197 -999
2009-08-07 10:39:10 51°27.071 2°59.726 13.8 4 8 -999
2009-08-07 10:41:10 51°27.147 2°59.913 63 5.09 67 -999
2009-08-07 10:43:10 51°27.154 3°0.014 43.2 0.5 133 -999
2009-08-07 10:45:10 51°27.126 3°0.009 36.8 1.1 197 -999
2009-08-07 10:47:10 51°27.079 2°59.984 38.1 1.69 201 -999
2009-08-07 10:49:10 51°27.038 2°59.965 26.3 0.5 194 -999
2009-08-07 10:51:10 51°27.053 2°59.947 18 0.8 28 -999
2009-08-07 10:53:10 51°27.074 3°0.006 30.6 1.6 37 -999
2009-08-07 10:55:10 51°27.12 3°0.086 43.7 2.29 54 -999
2009-08-07 10:57:10 51°27.166 3°0.17 39.7 2 51 -999
2009-08-07 10:59:10 51°27.181 3°0.191 18 0.8 351 -999
2009-08-07 11:01:10 51°27.214 3°0.097 318 1.69 269 -999
2009-08-07 11:03:10 51°27.189 3°0.033 314.8 1.39 222 -999
2009-08-07 11:05:10 51°27.142 2°59.997 302.1 1.69 197 -999
2009-08-07 11:07:10 51°27.089 2°59.982 270.1 1.69 204 -999
2009-08-07 11:09:10 51°27.09 2°59.867 347.3 2 335 -999
2009-08-07 11:11:10 51°27.14 2°59.959 40 1.89 51 -999
2009-08-07 11:13:10 51°27.152 2°59.992 22.6 0.4 162 -999
2009-08-07 11:15:10 51°27.113 2°59.992 35.2 1.39 183 -999
2009-08-07 11:17:10 51°27.063 2°59.984 60.8 1.6 182 -999
2009-08-07 11:19:10 51°27.112 3°0.101 43.6 3.1 44 -999
2009-08-07 11:21:10 51°27.14 3°0.147 18.1 0.5 71 -999
2009-08-07 11:23:10 51°27.152 3°0.16 1.1 0.2 352 -999
2009-08-07 11:25:10 51°27.13 3°0.165 16.5 1.1 175 -999
2009-08-07 11:27:10 51°27.086 3°0.167 50.8 1.39 181 -999
2009-08-07 11:29:10 51°27.043 3°0.173 64.7 1.3 139 -999
2009-08-07 11:31:10 51°27.077 3°0.197 357 1.8 345 -999
2009-08-07 11:33:10 51°27.154 3°0.193 1.6 2.6 358 -999
2009-08-07 11:35:10 51°27.245 3°0.163 352.6 3 349 -999
2009-08-07 11:37:10 51°27.315 3°0.149 2.2 0.9 11 -999
2009-08-07 11:39:10 51°27.315 3°0.163 3.2 0.59 145 -999
2009-08-07 11:41:10 51°27.286 3°0.186 27.6 1.1 158 -999
2009-08-07 11:43:10 51°27.248 3°0.202 59.6 1.19 168 -999
2009-08-07 11:45:10 51°27.21 3°0.216 65.7 1.1 168 -999
2009-08-07 11:47:10 51°27.174 3°0.23 66 1.1 166 -999
2009-08-07 11:49:10 51°27.244 3°0.264 354.8 5.2 351 -999
2009-08-07 11:51:10 51°27.365 3°0.196 337.1 2.2 334 -999
2009-08-07 11:53:10 51°27.426 3°0.165 342.6 1.39 342 -999
2009-08-07 11:55:10 51°27.425 3°0.166 328.1 0.69 146 -999
2009-08-07 11:57:10 51°27.393 3°0.2 351.3 1.39 147 -999
2009-08-07 11:59:10 51°27.356 3°0.234 37.1 1.1 108 -999
2009-08-07 13:01:10 51°25.431 2°58.946 207.5 10 206 -999
2009-08-07 13:03:10 51°25.123 2°58.739 208.4 10 204 -999
2009-08-07 13:05:10 51°24.82 2°58.52 211.5 10.09 203 -999
2009-08-07 13:07:10 51°24.516 2°58.293 208.9 10 212 -999
2009-08-07 13:09:10 51°24.212 2°58.061 209.3 10 209 -999
2009-08-07 13:11:10 51°23.911 2°57.832 210.1 10.09 205 -999
2009-08-07 13:13:10 51°23.609 2°57.609 210.1 9.9 205 -999
2009-08-07 13:15:10 51°23.307 2°57.39 209 9.9 206 -999
2009-08-07 13:17:10 51°23.003 2°57.168 210.5 10 204 -999
2009-08-07 13:19:10 51°22.698 2°56.953 210 10 203 -999
2009-08-07 13:21:10 51°22.396 2°56.737 210.5 9.9 204 -999
2009-08-07 13:23:10 51°22.094 2°56.518 210.5 10.09 202 -999
2009-08-07 13:25:10 51°21.794 2°56.285 211.4 10 204 -999
2009-08-07 13:27:10 51°21.498 2°56.054 211.3 10 211 -999
2009-08-07 13:29:10 51°21.2 2°55.824 210.4 10 203 -999
2009-08-07 13:31:10 51°20.904 2°55.594 210.3 9.9 203 -999
2009-08-07 13:33:10 51°20.606 2°55.366 211.1 10 207 -999
2009-08-07 13:35:10 51°20.311 2°55.137 209.9 9.69 204 -999
2009-08-07 13:37:10 51°20.019 2°54.909 212.9 9.8 204 -999
2009-08-07 13:39:10 51°19.729 2°54.669 211.3 9.8 207 -999
2009-08-07 13:41:10 51°19.432 2°54.431 210.3 9.9 209 -999
2009-08-07 13:43:10 51°19.137 2°54.191 209.3 9.8 210 -999
2009-08-07 13:45:10 51°18.84 2°53.951 210.4 10 205 -999
2009-08-07 13:47:10 51°18.545 2°53.705 208.6 9.9 214 -999
2009-08-07 13:49:10 51°18.251 2°53.461 210.4 9.9 210 -999
2009-08-07 13:51:10 51°17.931 2°53.318 189 10.3 187 -999
2009-08-07 13:53:10 51°17.591 2°53.289 186.8 10.19 185 -999
2009-08-07 13:55:10 51°17.253 2°53.245 191.5 10.3 184 -999
2009-08-07 13:57:10 51°16.912 2°53.274 175.6 10.5 168 -999
2009-08-07 13:59:10 51°16.566 2°53.441 170.6 10.9 163 -999
2009-08-07 14:01:10 51°16.22 2°53.593 171.6 10.69 163 -999
2009-08-07 14:03:10 51°15.874 2°53.744 171.6 10.9 165 -999
2009-08-07 14:05:10 51°15.527 2°53.906 170.8 11 165 -999
2009-08-07 14:07:10 51°15.182 2°54.092 161 11.09 155 -999
2009-08-07 14:09:10 51°14.875 2°54.269 169 8.3 162 -999
2009-08-07 14:11:10 51°14.643 2°54.414 168.1 6.4 161 -999
2009-08-07 14:13:10 51°14.5 2°54.522 168.8 3.6 151 -999
2009-08-07 14:15:10 51°14.415 2°54.691 132.9 4.5 118 -999
2009-08-07 14:17:10 51°14.316 2°55.126 119.5 11.09 124 -999
2009-08-07 14:19:10 51°14.114 2°55.414 152.5 6.9 153 -999
2009-08-07 14:21:10 51°13.905 2°55.569 155.4 6.5 156 -999
2009-08-07 14:23:10 51°13.77 2°55.71 136 4.2 137 -999
2009-08-07 14:25:10 51°13.701 2°55.839 122.2 2.5 124 -999
2009-08-07 14:27:10 51°13.674 2°55.928 114.9 1.69 114 -999
2009-08-07 14:29:10 51°13.662 2°55.96 119.2 0.2 222 -999